createdAt,value
2017-10-15T00:01:39.200Z,7.35
2017-10-15T00:04:06.693Z,8.70
2017-10-15T00:06:32.884Z,8.70
2017-10-15T00:08:58.965Z,9.07
2017-10-15T00:11:25.063Z,9.57
2017-10-15T00:13:51.889Z,12.20
2017-10-15T00:16:18.750Z,11.33
2017-10-15T00:18:44.857Z,8.38
2017-10-15T00:21:10.986Z,9.25
2017-10-15T00:23:37.152Z,11.10
2017-10-15T00:26:03.422Z,7.65
2017-10-15T00:28:29.516Z,11.23
2017-10-15T00:30:55.638Z,13.32
2017-10-15T00:33:21.758Z,8.32
2017-10-15T00:35:48.654Z,8.68
2017-10-15T00:38:14.860Z,8.68
2017-10-15T00:40:41.694Z,12.93
2017-10-15T00:43:07.809Z,7.80
2017-10-15T00:45:33.909Z,9.90
2017-10-15T00:48:00.016Z,8.48
2017-10-15T00:50:26.116Z,7.75
2017-10-15T00:52:52.217Z,10.93
2017-10-15T00:55:19.040Z,9.38
2017-10-15T00:57:45.138Z,13.82
2017-10-15T01:00:11.232Z,9.13
2017-10-15T01:02:37.362Z,8.68
2017-10-15T01:05:03.457Z,7.90
2017-10-15T01:07:29.545Z,9.50
2017-10-15T01:09:55.890Z,8.60
2017-10-15T01:12:22.206Z,8.10
2017-10-15T01:14:48.310Z,8.57
2017-10-15T01:17:14.650Z,10.80
2017-10-15T01:19:40.971Z,8.48
2017-10-15T01:22:07.096Z,7.20
2017-10-15T01:24:33.786Z,8.20
2017-10-15T01:27:00.649Z,7.82
2017-10-15T01:29:26.779Z,8.05
2017-10-15T01:31:56.734Z,7.60
2017-10-15T01:34:22.905Z,7.97
2017-10-15T01:36:49.042Z,14.20
2017-10-15T01:39:15.167Z,9.18
2017-10-15T01:41:41.268Z,8.70
2017-10-15T01:44:07.390Z,7.57
2017-10-15T01:46:33.530Z,7.72
2017-10-15T01:48:59.680Z,8.40
2017-10-15T01:51:25.799Z,7.18
2017-10-15T01:53:51.928Z,8.43
2017-10-15T01:56:18.045Z,9.88
2017-10-15T01:58:44.206Z,13.90
2017-10-15T02:01:10.311Z,9.00
2017-10-15T02:03:37.509Z,10.70
2017-10-15T02:06:12.106Z,9.93
2017-10-15T02:08:38.235Z,10.88
2017-10-15T02:11:04.445Z,11.07
2017-10-15T02:13:30.556Z,7.87
2017-10-15T02:15:56.650Z,8.40
2017-10-15T02:18:22.761Z,10.32
2017-10-15T02:20:48.882Z,8.50
2017-10-15T02:23:15.090Z,10.15
2017-10-15T02:25:41.936Z,7.10
2017-10-15T02:28:08.054Z,8.52
2017-10-15T02:30:34.146Z,7.53
2017-10-15T02:33:00.253Z,8.57
2017-10-15T02:35:27.174Z,11.15
2017-10-15T02:37:53.278Z,8.50
2017-10-15T02:40:20.147Z,10.73
2017-10-15T02:42:46.260Z,11.60
2017-10-15T02:45:12.370Z,9.05
2017-10-15T02:47:38.456Z,10.23
2017-10-15T02:50:05.295Z,8.57
2017-10-15T02:52:32.147Z,9.48
2017-10-15T02:54:58.259Z,10.48
2017-10-15T02:57:24.401Z,9.20
2017-10-15T02:59:50.499Z,9.05
2017-10-15T03:02:16.597Z,9.77
2017-10-15T03:04:42.694Z,9.73
2017-10-15T03:07:08.793Z,8.60
2017-10-15T03:09:34.947Z,10.85
2017-10-15T03:12:01.862Z,9.60
2017-10-15T03:14:27.958Z,8.40
2017-10-15T03:16:54.228Z,9.65
2017-10-15T03:19:20.345Z,11.65
2017-10-15T03:21:46.447Z,10.43
2017-10-15T03:24:13.282Z,12.60
2017-10-15T03:26:39.399Z,11.77
2017-10-15T03:29:05.497Z,12.55
2017-10-15T03:31:32.334Z,12.90
2017-10-15T03:33:58.420Z,12.32
2017-10-15T03:36:24.530Z,14.80
2017-10-15T03:38:51.360Z,11.20
2017-10-15T03:41:17.437Z,12.02
2017-10-15T03:43:56.664Z,11.25
2017-10-15T03:46:22.751Z,9.38
2017-10-15T03:48:48.841Z,10.63
2017-10-15T03:51:14.943Z,11.70
2017-10-15T03:53:41.039Z,10.00
2017-10-15T03:56:07.917Z,11.12
2017-10-15T03:58:34.004Z,9.18
2017-10-15T04:01:00.143Z,14.32
2017-10-15T04:03:26.241Z,9.40
2017-10-15T04:05:52.362Z,8.68
2017-10-15T04:08:19.181Z,12.65
2017-10-15T04:10:45.282Z,9.77
2017-10-15T04:13:11.378Z,10.52
2017-10-15T04:15:37.663Z,11.30
2017-10-15T04:18:03.799Z,9.50
2017-10-15T04:20:29.908Z,9.68
2017-10-15T04:22:56.040Z,10.40
2017-10-15T04:25:22.867Z,10.00
2017-10-15T04:27:48.990Z,9.90
2017-10-15T04:30:15.081Z,13.95
2017-10-15T04:32:41.921Z,8.55
2017-10-15T04:35:08.010Z,8.90
2017-10-15T04:37:40.560Z,11.48
2017-10-15T04:40:06.697Z,8.77
2017-10-15T04:42:32.789Z,12.82
2017-10-15T04:44:59.604Z,9.90
2017-10-15T04:47:25.690Z,13.13
2017-10-15T04:49:51.773Z,12.13
2017-10-15T04:52:17.882Z,10.13
2017-10-15T04:54:43.992Z,10.35
2017-10-15T04:57:10.082Z,8.45
2017-10-15T04:59:36.990Z,12.07
2017-10-15T05:02:03.873Z,11.05
2017-10-15T05:04:30.003Z,12.02
2017-10-15T05:06:56.092Z,9.90
2017-10-15T05:09:22.176Z,11.55
2017-10-15T05:11:48.268Z,12.15
2017-10-15T05:14:15.113Z,8.90
2017-10-15T05:16:41.951Z,10.20
2017-10-15T05:19:08.088Z,11.68
2017-10-15T05:21:34.191Z,10.10
2017-10-15T05:24:00.293Z,9.43
2017-10-15T05:26:27.126Z,9.40
2017-10-15T05:28:53.245Z,11.43
2017-10-15T05:31:19.337Z,9.73
2017-10-15T05:33:46.186Z,9.07
2017-10-15T05:36:13.041Z,10.20
2017-10-15T05:38:39.895Z,12.52
2017-10-15T05:41:06.015Z,9.35
2017-10-15T05:43:32.112Z,10.10
2017-10-15T05:45:58.988Z,8.60
2017-10-15T05:48:25.175Z,9.18
2017-10-15T05:50:51.448Z,11.35
2017-10-15T05:53:18.306Z,8.57
2017-10-15T05:55:44.404Z,8.55
2017-10-15T05:58:10.509Z,8.50
2017-10-15T06:00:36.680Z,11.43
2017-10-15T06:03:03.533Z,8.75
2017-10-15T06:05:30.386Z,8.77
2017-10-15T06:07:57.252Z,10.70
2017-10-15T06:10:23.377Z,9.75
2017-10-15T06:12:49.497Z,8.73
2017-10-15T06:15:15.604Z,9.02
2017-10-15T06:17:41.710Z,11.07
2017-10-15T06:20:07.829Z,12.23
2017-10-15T06:22:33.928Z,9.77
2017-10-15T06:25:00.868Z,12.60
2017-10-15T06:27:26.969Z,10.63
2017-10-15T06:29:53.090Z,11.32
2017-10-15T06:32:19.307Z,10.85
2017-10-15T06:34:46.213Z,11.60
2017-10-15T06:37:12.314Z,11.35
2017-10-15T06:39:39.320Z,12.10
2017-10-15T06:42:05.409Z,9.40
2017-10-15T06:44:32.317Z,11.27
2017-10-15T06:46:58.539Z,13.60
2017-10-15T06:49:25.377Z,10.57
2017-10-15T06:51:51.493Z,10.73
2017-10-15T06:54:17.622Z,11.12
2017-10-15T06:56:43.717Z,10.98
2017-10-15T06:59:09.957Z,9.20
2017-10-15T07:01:36.811Z,9.90
2017-10-15T07:04:03.665Z,10.52
2017-10-15T07:06:29.762Z,11.73
2017-10-15T07:08:55.887Z,12.88
2017-10-15T07:11:22.018Z,11.15
2017-10-15T07:13:48.151Z,11.88
2017-10-15T07:16:14.243Z,12.32
2017-10-15T07:18:40.356Z,12.30
2017-10-15T07:21:06.472Z,11.02
2017-10-15T07:23:32.560Z,11.00
2017-10-15T07:25:58.661Z,16.33
2017-10-15T07:28:24.758Z,12.30
2017-10-15T07:30:50.858Z,11.20
2017-10-15T07:33:16.989Z,11.85
2017-10-15T07:35:43.145Z,12.77
2017-10-15T07:38:09.370Z,13.80
2017-10-15T07:40:35.549Z,14.40
2017-10-15T07:43:01.675Z,13.07
2017-10-15T07:45:27.775Z,17.20
2017-10-15T07:47:53.953Z,12.68
2017-10-15T07:50:20.050Z,11.95
2017-10-15T07:52:47.259Z,11.70
2017-10-15T07:55:13.543Z,13.30
2017-10-15T07:57:39.743Z,14.13
2017-10-15T08:00:05.861Z,12.77
2017-10-15T08:02:31.998Z,13.07
2017-10-15T08:04:58.862Z,11.57
2017-10-15T08:07:25.704Z,11.87
2017-10-15T08:09:52.675Z,10.63
2017-10-15T08:12:19.513Z,10.00
2017-10-15T08:14:45.641Z,10.97
2017-10-15T08:17:11.763Z,9.00
2017-10-15T08:19:38.606Z,8.57
2017-10-15T08:22:05.957Z,10.43
2017-10-15T08:24:32.811Z,7.70
2017-10-15T08:26:58.969Z,8.30
2017-10-15T08:29:25.866Z,8.20
2017-10-15T08:31:51.987Z,7.80
2017-10-15T08:34:18.086Z,7.13
2017-10-15T08:36:44.196Z,6.33
2017-10-15T08:39:10.353Z,6.30
2017-10-15T08:41:36.532Z,6.50
2017-10-15T08:44:02.723Z,6.00
2017-10-15T08:46:28.846Z,5.33
2017-10-15T08:48:55.677Z,7.43
2017-10-15T08:51:21.796Z,7.60
2017-10-15T08:53:49.651Z,7.20
2017-10-15T08:56:16.529Z,6.13
2017-10-15T08:58:42.648Z,5.30
2017-10-15T09:01:08.757Z,5.90
2017-10-15T09:03:36.237Z,4.60
2017-10-15T09:06:02.543Z,5.97
2017-10-15T09:08:28.666Z,6.10
2017-10-15T09:10:55.514Z,4.33
2017-10-15T09:13:22.408Z,4.73
2017-10-15T09:18:45.526Z,4.30
2017-10-15T09:21:11.645Z,4.50
2017-10-15T09:23:37.883Z,5.27
2017-10-15T09:26:03.990Z,4.07
2017-10-15T09:28:30.812Z,4.57
2017-10-15T09:30:56.960Z,3.87
2017-10-15T09:33:23.061Z,5.10
2017-10-15T09:35:49.622Z,4.17
2017-10-15T09:38:15.913Z,5.10
2017-10-15T09:40:41.999Z,7.63
2017-10-15T09:43:08.102Z,4.93
2017-10-15T09:45:34.405Z,4.90
2017-10-15T09:48:00.748Z,6.03
2017-10-15T09:50:27.040Z,4.57
2017-10-15T09:52:54.131Z,5.30
2017-10-15T09:55:20.366Z,5.33
2017-10-15T09:57:46.680Z,6.40
2017-10-15T10:00:12.978Z,3.40
2017-10-15T10:02:39.399Z,3.97
2017-10-15T10:05:05.947Z,3.70
2017-10-15T10:07:32.281Z,5.40
2017-10-15T10:09:58.760Z,4.10
2017-10-15T10:12:25.094Z,5.47
2017-10-15T10:14:51.462Z,4.23
2017-10-15T10:17:17.904Z,3.43
2017-10-15T10:19:44.248Z,4.93
2017-10-15T10:22:10.551Z,5.07
2017-10-15T10:24:36.879Z,4.70
2017-10-15T10:27:03.225Z,4.83
2017-10-15T10:29:29.506Z,3.80
2017-10-15T10:31:55.833Z,3.97
2017-10-15T10:34:22.150Z,4.30
2017-10-15T10:36:52.212Z,3.50
2017-10-15T10:39:18.474Z,3.77
2017-10-15T10:41:44.580Z,5.10
2017-10-15T10:44:11.447Z,5.10
2017-10-15T10:46:38.428Z,6.53
2017-10-15T10:49:04.534Z,3.40
2017-10-15T10:51:30.665Z,6.70
2017-10-15T10:53:56.894Z,6.70
2017-10-15T10:56:23.293Z,4.43
2017-10-15T10:58:49.586Z,4.30
2017-10-15T11:01:15.919Z,5.00
2017-10-15T11:03:42.235Z,4.80
2017-10-15T11:08:41.773Z,7.53
2017-10-15T11:11:08.835Z,4.80
2017-10-15T11:13:35.117Z,4.53
2017-10-15T11:16:01.451Z,4.60
2017-10-15T11:18:27.818Z,4.90
2017-10-15T11:20:54.255Z,5.50
2017-10-15T11:23:21.406Z,5.90
2017-10-15T11:25:57.796Z,5.23
2017-10-15T11:28:23.886Z,5.13
2017-10-15T11:30:59.821Z,6.00
2017-10-15T11:33:26.072Z,6.03
2017-10-15T11:36:06.475Z,6.37
2017-10-15T11:38:35.941Z,4.37
2017-10-15T11:41:02.113Z,6.33
2017-10-15T11:43:28.978Z,5.30
2017-10-15T11:45:55.103Z,4.20
2017-10-15T11:48:21.214Z,5.03
2017-10-15T11:50:48.069Z,4.80
2017-10-15T11:53:14.147Z,4.83
2017-10-15T11:55:41.016Z,6.93
2017-10-15T11:58:07.157Z,5.63
2017-10-15T12:00:34.026Z,5.33
2017-10-15T12:03:01.134Z,6.07
2017-10-15T12:05:39.246Z,4.03
2017-10-15T12:08:05.605Z,4.90
2017-10-15T12:10:31.739Z,6.17
2017-10-15T12:12:57.882Z,6.00
2017-10-15T12:15:24.023Z,6.10
2017-10-15T12:17:50.934Z,7.50
2017-10-15T12:20:17.065Z,6.90
2017-10-15T12:22:44.044Z,5.73
2017-10-15T12:25:14.487Z,6.10
2017-10-15T12:27:40.658Z,6.07
2017-10-15T12:30:06.779Z,5.97
2017-10-15T12:32:32.917Z,6.97
2017-10-15T12:34:59.136Z,7.70
2017-10-15T12:37:25.255Z,5.80
2017-10-15T12:39:51.395Z,4.80
2017-10-15T12:42:17.513Z,4.27
2017-10-15T12:44:43.743Z,5.60
2017-10-15T12:47:10.638Z,9.30
2017-10-15T12:49:36.789Z,4.87
2017-10-15T12:52:02.938Z,7.07
2017-10-15T12:54:29.085Z,5.53
2017-10-15T12:56:55.215Z,4.27
2017-10-15T12:59:21.323Z,6.17
2017-10-15T13:01:47.436Z,7.10
2017-10-15T13:04:13.553Z,7.33
2017-10-15T13:06:39.658Z,6.17
2017-10-15T13:09:05.811Z,6.90
2017-10-15T13:11:31.921Z,4.97
2017-10-15T13:13:58.082Z,6.40
2017-10-15T13:16:24.221Z,5.17
2017-10-15T13:18:50.341Z,6.80
2017-10-15T13:21:16.460Z,5.13
2017-10-15T13:23:42.593Z,7.07
2017-10-15T13:26:08.723Z,5.30
2017-10-15T13:28:34.880Z,6.70
2017-10-15T13:31:01.144Z,9.27
2017-10-15T13:33:28.038Z,6.47
2017-10-15T13:35:54.902Z,3.97
2017-10-15T13:38:21.036Z,6.00
2017-10-15T13:40:47.893Z,10.00
2017-10-15T13:43:13.999Z,7.80
2017-10-15T13:45:40.106Z,7.53
2017-10-15T13:48:06.231Z,5.87
2017-10-15T13:50:32.354Z,5.27
2017-10-15T13:53:02.011Z,4.50
2017-10-15T13:55:28.265Z,7.00
2017-10-15T13:57:54.385Z,7.20
2017-10-15T14:00:20.747Z,6.03
2017-10-15T14:02:47.097Z,13.93
2017-10-15T14:05:13.452Z,6.67
2017-10-15T14:07:39.784Z,7.10
2017-10-15T14:10:06.869Z,6.90
2017-10-15T14:12:37.102Z,6.30
2017-10-15T14:15:03.246Z,4.97
2017-10-15T14:17:29.401Z,6.93
2017-10-15T14:19:55.531Z,8.73
2017-10-15T14:22:21.674Z,5.43
2017-10-15T14:24:48.555Z,6.47
2017-10-15T14:27:15.457Z,11.27
2017-10-15T14:29:41.591Z,4.43
2017-10-15T14:32:13.897Z,6.30
2017-10-15T14:34:40.034Z,7.57
2017-10-15T14:37:06.224Z,5.87
2017-10-15T14:39:32.353Z,4.90
2017-10-15T14:41:58.522Z,6.87
2017-10-15T14:44:24.642Z,5.67
2017-10-15T14:46:50.865Z,5.23
2017-10-15T14:49:16.977Z,6.00
2017-10-15T14:51:48.484Z,6.17
2017-10-15T14:54:14.605Z,10.90
2017-10-15T14:56:40.729Z,6.80
2017-10-15T14:59:06.871Z,5.40
2017-10-15T15:01:33.742Z,6.60
2017-10-15T15:03:59.986Z,7.50
2017-10-15T15:06:26.149Z,5.63
2017-10-15T15:08:54.428Z,5.80
2017-10-15T15:11:20.617Z,10.10
2017-10-15T15:13:46.791Z,6.00
2017-10-15T15:16:12.921Z,4.67
2017-10-15T15:18:39.045Z,5.23
2017-10-15T15:21:05.150Z,6.63
2017-10-15T15:23:31.290Z,4.63
2017-10-15T15:25:57.406Z,7.00
2017-10-15T15:28:23.543Z,5.90
2017-10-15T15:30:51.355Z,6.70
2017-10-15T15:33:17.485Z,8.53
2017-10-15T15:35:43.594Z,6.37
2017-10-15T15:38:09.716Z,6.57
2017-10-15T15:40:35.864Z,5.27
2017-10-15T15:43:02.024Z,5.87
2017-10-15T15:45:28.970Z,5.00
2017-10-15T15:50:26.954Z,7.60
2017-10-15T15:52:53.123Z,7.10
2017-10-15T15:55:19.265Z,6.47
2017-10-15T15:57:46.683Z,8.70
2017-10-15T16:00:12.837Z,7.30
2017-10-15T16:02:48.271Z,6.07
2017-10-15T16:05:14.422Z,6.00
2017-10-15T16:07:40.595Z,7.50
2017-10-15T16:10:07.437Z,6.63
2017-10-15T16:12:33.570Z,9.70
2017-10-15T16:15:01.763Z,9.07
2017-10-15T16:17:40.864Z,5.90
2017-10-15T16:20:23.154Z,6.57
2017-10-15T16:22:51.569Z,9.90
2017-10-15T16:25:17.687Z,6.60
2017-10-15T16:27:43.782Z,6.63
2017-10-15T16:30:09.931Z,9.13
2017-10-15T16:32:36.030Z,6.37
2017-10-15T16:35:02.998Z,8.63
2017-10-15T16:37:29.120Z,9.23
2017-10-15T16:39:55.978Z,8.00
2017-10-15T16:42:22.073Z,6.67
2017-10-15T16:44:48.202Z,10.93
2017-10-15T16:47:14.314Z,8.77
2017-10-15T16:49:40.418Z,8.13
2017-10-15T16:52:06.549Z,11.30
2017-10-15T16:54:32.681Z,8.33
2017-10-15T16:56:58.813Z,9.10
2017-10-15T16:59:24.922Z,12.40
2017-10-15T17:01:51.088Z,11.20
2017-10-15T17:04:17.207Z,11.27
2017-10-15T17:06:44.094Z,10.47
2017-10-15T17:09:10.995Z,9.83
2017-10-15T17:11:37.121Z,9.40
2017-10-15T17:14:04.010Z,11.80
2017-10-15T17:16:30.147Z,8.50
2017-10-15T17:18:56.257Z,11.27
2017-10-15T17:21:23.121Z,11.13
2017-10-15T17:23:49.264Z,8.97
2017-10-15T17:26:15.398Z,15.00
2017-10-15T17:28:41.526Z,12.33
2017-10-15T17:31:18.325Z,10.17
2017-10-15T17:33:56.519Z,10.83
2017-10-15T17:36:23.615Z,9.70
2017-10-15T17:38:49.998Z,12.63
2017-10-15T17:41:16.626Z,15.17
2017-10-15T17:43:42.966Z,10.53
2017-10-15T17:46:10.121Z,9.20
2017-10-15T17:48:37.309Z,11.97
2017-10-15T17:51:03.638Z,8.70
2017-10-15T17:53:29.958Z,8.37
2017-10-15T17:55:56.302Z,7.67
2017-10-15T17:58:22.649Z,10.17
2017-10-15T18:00:49.049Z,8.63
2017-10-15T18:06:12.601Z,12.20
2017-10-15T18:08:38.989Z,11.93
2017-10-15T18:11:05.378Z,7.70
2017-10-15T18:13:32.457Z,11.40
2017-10-15T18:15:58.842Z,9.47
2017-10-15T18:18:25.180Z,8.07
2017-10-15T18:20:51.510Z,9.57
2017-10-15T18:23:17.877Z,9.90
2017-10-15T18:25:44.278Z,11.80
2017-10-15T18:28:10.763Z,8.40
2017-10-15T18:30:37.099Z,8.83
2017-10-15T18:33:04.877Z,9.80
2017-10-15T18:35:31.218Z,7.57
2017-10-15T18:37:57.541Z,9.07
2017-10-15T18:40:23.847Z,9.43
2017-10-15T18:42:50.208Z,9.80
2017-10-15T18:45:16.974Z,10.77
2017-10-15T18:47:43.475Z,9.97
2017-10-15T18:50:09.797Z,7.33
2017-10-15T18:52:36.342Z,8.60
2017-10-15T18:55:02.769Z,11.07
2017-10-15T18:57:29.106Z,9.87
2017-10-15T18:59:55.454Z,8.90
2017-10-15T19:02:22.562Z,9.30
2017-10-15T19:04:49.626Z,7.77
2017-10-15T19:07:15.936Z,10.10
2017-10-15T19:09:42.284Z,7.83
2017-10-15T19:12:08.597Z,7.80
2017-10-15T19:14:35.371Z,9.80
2017-10-15T19:17:01.720Z,9.93
2017-10-15T19:19:28.045Z,10.30
2017-10-15T19:21:54.415Z,8.70
2017-10-15T19:24:21.046Z,8.30
2017-10-15T19:26:48.114Z,8.23
2017-10-15T19:29:14.534Z,8.80
2017-10-15T19:31:40.957Z,10.97
2017-10-15T19:34:07.310Z,8.00
2017-10-15T19:36:33.653Z,8.90
2017-10-15T19:39:00.002Z,10.50
2017-10-15T19:41:26.327Z,11.33
2017-10-15T19:43:52.647Z,9.90
2017-10-15T19:46:19.001Z,8.80
2017-10-15T19:48:45.307Z,8.27
2017-10-15T19:51:12.361Z,9.90
2017-10-15T19:53:38.831Z,9.00
2017-10-15T19:56:05.936Z,12.43
2017-10-15T19:58:32.254Z,8.50
2017-10-15T20:00:58.569Z,9.87
2017-10-15T20:03:24.918Z,10.40
2017-10-15T20:05:51.241Z,8.70
2017-10-15T20:08:17.549Z,8.30
2017-10-15T20:10:43.928Z,7.90
2017-10-15T20:13:11.030Z,9.30
2017-10-15T20:15:38.935Z,9.30
2017-10-15T20:18:05.266Z,8.37
2017-10-15T20:20:31.587Z,8.97
2017-10-15T20:22:58.066Z,9.80
2017-10-15T20:25:24.397Z,8.90
2017-10-15T20:27:50.697Z,9.37
2017-10-15T20:30:17.770Z,10.23
2017-10-15T20:32:44.807Z,8.67
2017-10-15T20:35:11.864Z,9.10
2017-10-15T20:37:38.240Z,8.40
2017-10-15T20:40:04.586Z,9.67
2017-10-15T20:42:31.057Z,9.00
2017-10-15T20:44:57.366Z,9.57
2017-10-15T20:47:23.699Z,9.30
2017-10-15T20:49:50.749Z,11.67
2017-10-15T20:52:17.157Z,10.73
2017-10-15T20:54:43.601Z,10.10
2017-10-15T20:57:09.956Z,9.23
2017-10-15T20:59:36.266Z,9.07
2017-10-15T21:02:02.699Z,11.13
2017-10-15T21:04:29.136Z,10.93
2017-10-15T21:06:56.174Z,14.80
2017-10-15T21:09:22.496Z,11.90
2017-10-15T21:11:48.809Z,12.93
2017-10-15T21:14:15.143Z,11.10
2017-10-15T21:16:41.507Z,11.43
2017-10-15T21:19:07.957Z,9.83
2017-10-15T21:21:34.259Z,10.70
2017-10-15T21:24:01.301Z,10.30
2017-10-15T21:26:28.359Z,12.60
2017-10-15T21:28:55.002Z,11.53
2017-10-15T21:31:21.325Z,10.30
2017-10-15T21:33:47.645Z,11.13
2017-10-15T21:36:15.438Z,10.90
2017-10-15T21:38:42.586Z,12.37
2017-10-15T21:41:09.722Z,10.60
2017-10-15T21:43:36.049Z,12.43
2017-10-15T21:46:02.395Z,11.10
2017-10-15T21:48:30.314Z,12.43
2017-10-15T21:50:57.014Z,13.47
2017-10-15T21:53:23.372Z,11.80
2017-10-15T21:55:49.749Z,12.10
2017-10-15T21:58:16.099Z,11.83
2017-10-15T22:00:42.405Z,11.40
2017-10-15T22:03:08.707Z,11.50
2017-10-15T22:05:35.805Z,12.50
2017-10-15T22:08:02.127Z,11.57
2017-10-15T22:10:28.467Z,13.60
2017-10-15T22:12:54.782Z,17.00
2017-10-15T22:15:21.097Z,11.63
2017-10-15T22:17:48.158Z,10.70
2017-10-15T22:20:15.323Z,10.83
2017-10-15T22:22:41.620Z,13.57
2017-10-15T22:25:07.930Z,13.70
2017-10-15T22:27:34.994Z,11.83
2017-10-15T22:30:01.327Z,11.90
2017-10-15T22:32:27.649Z,14.37
2017-10-15T22:34:53.970Z,13.03
2017-10-15T22:37:21.004Z,10.93
2017-10-15T22:39:48.877Z,12.17
2017-10-15T22:42:15.226Z,18.07
2017-10-15T22:44:41.540Z,13.67
2017-10-15T22:47:07.860Z,12.40
2017-10-15T22:49:34.229Z,14.80
2017-10-15T22:52:01.804Z,10.23
2017-10-15T22:54:28.154Z,11.33
2017-10-15T22:56:54.473Z,14.70
2017-10-15T22:59:20.962Z,12.33
2017-10-15T23:01:47.285Z,11.50
2017-10-15T23:04:14.864Z,12.20
2017-10-15T23:06:41.205Z,13.93
2017-10-15T23:09:07.529Z,15.63
2017-10-15T23:11:33.853Z,12.93
2017-10-15T23:14:00.207Z,14.90
2017-10-15T23:16:26.518Z,11.97
2017-10-15T23:18:52.853Z,12.93
2017-10-15T23:21:19.173Z,11.90
2017-10-15T23:23:45.509Z,12.37
2017-10-15T23:26:12.566Z,14.43
2017-10-15T23:28:39.624Z,11.83
2017-10-15T23:31:05.950Z,11.60
2017-10-15T23:33:32.268Z,12.00
2017-10-15T23:35:58.603Z,12.50
2017-10-15T23:38:24.918Z,12.73
2017-10-15T23:40:51.985Z,14.33
2017-10-15T23:43:19.040Z,14.20
2017-10-15T23:45:46.131Z,14.53
2017-10-15T23:48:12.489Z,11.00
2017-10-15T23:50:39.018Z,12.23
2017-10-15T23:53:05.334Z,12.10
2017-10-15T23:55:32.405Z,13.90
2017-10-15T23:57:58.731Z,16.87
